createdAt,value
2023-02-10T00:02:03.214Z,22.37
2023-02-10T00:04:39.348Z,21.15
2023-02-10T00:07:11.608Z,21.04
2023-02-10T00:09:39.157Z,20.86
2023-02-10T00:12:06.134Z,20.29
2023-02-10T00:14:32.818Z,19.98
2023-02-10T00:16:59.716Z,19.10
2023-02-10T00:19:26.398Z,19.19
2023-02-10T00:21:53.330Z,20.14
2023-02-10T00:24:20.014Z,19.03
2023-02-10T00:26:46.748Z,19.03
2023-02-10T00:29:13.460Z,18.98
2023-02-10T00:31:40.195Z,17.87
2023-02-10T00:34:06.945Z,18.76
2023-02-10T00:36:33.630Z,18.50
2023-02-10T00:39:00.610Z,19.56
2023-02-10T00:41:28.012Z,18.81
2023-02-10T00:43:57.027Z,19.00
2023-02-10T00:46:23.780Z,17.86
2023-02-10T00:48:50.783Z,18.81
2023-02-10T00:51:17.609Z,18.71
2023-02-10T00:53:44.180Z,20.32
2023-02-10T00:58:44.604Z,19.52
2023-02-10T01:01:11.582Z,19.85
2023-02-10T01:03:39.444Z,19.37
2023-02-10T01:06:06.401Z,20.94
2023-02-10T01:08:33.887Z,20.25
2023-02-10T01:11:01.508Z,20.45
2023-02-10T01:13:28.333Z,20.24
2023-02-10T01:15:55.065Z,19.67
2023-02-10T01:18:21.911Z,20.14
2023-02-10T01:20:48.690Z,19.34
2023-02-10T01:23:16.105Z,19.90
2023-02-10T01:25:43.521Z,19.83
2023-02-10T01:28:10.739Z,19.06
2023-02-10T01:30:37.541Z,19.87
2023-02-10T01:33:04.112Z,20.10
2023-02-10T01:35:31.004Z,19.66
2023-02-10T01:37:58.124Z,20.22
2023-02-10T01:43:40.822Z,19.95
2023-02-10T01:46:11.990Z,20.21
2023-02-10T01:48:44.832Z,20.24
2023-02-10T01:51:12.593Z,20.10
2023-02-10T01:53:40.247Z,19.70
2023-02-10T01:56:10.349Z,18.54
2023-02-10T01:58:38.952Z,18.40
2023-02-10T02:01:06.569Z,18.42
2023-02-10T02:03:36.887Z,18.60
2023-02-10T02:06:03.972Z,18.01
2023-02-10T02:08:34.621Z,17.93
2023-02-10T02:11:01.172Z,17.52
2023-02-10T02:13:28.117Z,18.39
2023-02-10T02:15:57.080Z,18.52
2023-02-10T02:18:25.806Z,18.50
2023-02-10T02:20:58.728Z,18.37
2023-02-10T02:23:30.465Z,17.80
2023-02-10T02:25:57.257Z,17.88
2023-02-10T02:28:24.231Z,19.10
2023-02-10T02:30:53.116Z,18.45
2023-02-10T02:33:20.066Z,19.61
2023-02-10T02:35:47.129Z,18.78
2023-02-10T02:38:13.726Z,19.46
2023-02-10T02:40:46.376Z,19.00
2023-02-10T02:43:13.113Z,18.50
2023-02-10T02:45:41.817Z,19.98
2023-02-10T02:48:09.317Z,21.21
2023-02-10T02:50:41.808Z,22.70
2023-02-10T02:56:03.630Z,23.29
2023-02-10T02:58:30.770Z,22.77
2023-02-10T03:00:58.539Z,22.38
2023-02-10T03:03:28.307Z,22.28
2023-02-10T03:05:56.334Z,22.39
2023-02-10T03:08:23.026Z,21.40
2023-02-10T03:10:52.544Z,21.02
2023-02-10T03:13:19.206Z,20.02
2023-02-10T03:15:46.954Z,20.62
2023-02-10T03:18:14.318Z,19.89
2023-02-10T03:20:41.786Z,19.35
2023-02-10T03:23:08.720Z,19.44
2023-02-10T03:25:35.728Z,19.75
2023-02-10T03:28:05.158Z,19.30
2023-02-10T03:30:32.242Z,19.10
2023-02-10T03:33:00.013Z,19.13
2023-02-10T03:35:26.862Z,18.85
2023-02-10T03:37:56.684Z,18.60
2023-02-10T03:40:23.842Z,18.24
2023-02-10T03:42:50.452Z,18.01
2023-02-10T03:45:17.800Z,17.74
2023-02-10T03:47:47.235Z,17.29
2023-02-10T03:50:13.986Z,17.03
2023-02-10T03:52:46.666Z,17.23
2023-02-10T03:55:13.871Z,16.87
2023-02-10T03:57:42.379Z,16.88
2023-02-10T04:00:11.251Z,17.04
2023-02-10T04:02:38.102Z,17.21
2023-02-10T04:05:04.932Z,15.98
2023-02-10T04:07:31.867Z,15.92
2023-02-10T04:09:59.284Z,16.06
2023-02-10T04:12:45.357Z,15.79
2023-02-10T04:15:12.870Z,15.12
2023-02-10T04:17:40.199Z,15.20
2023-02-10T04:20:09.900Z,15.34
2023-02-10T04:22:37.345Z,14.61
2023-02-10T04:25:04.240Z,14.76
2023-02-10T04:27:34.803Z,14.48
2023-02-10T04:30:02.213Z,13.91
2023-02-10T04:32:29.633Z,14.06
2023-02-10T04:34:57.910Z,13.31
2023-02-10T04:40:16.102Z,12.71
2023-02-10T04:42:45.215Z,12.67
2023-02-10T04:45:17.750Z,12.77
2023-02-10T04:47:46.282Z,13.24
2023-02-10T04:50:12.934Z,12.07
2023-02-10T04:52:39.957Z,12.41
2023-02-10T04:55:07.274Z,11.86
2023-02-10T04:57:34.193Z,11.64
2023-02-10T05:00:00.771Z,11.99
2023-02-10T05:02:28.212Z,11.66
2023-02-10T05:04:55.130Z,11.46
2023-02-10T05:07:22.160Z,11.80
2023-02-10T05:09:49.014Z,12.08
2023-02-10T05:12:16.716Z,11.99
2023-02-10T05:14:45.030Z,12.02
2023-02-10T05:17:13.852Z,11.80
2023-02-10T05:19:45.285Z,12.01
2023-02-10T05:25:03.443Z,12.10
2023-02-10T05:30:27.128Z,12.06
2023-02-10T05:32:56.148Z,11.61
2023-02-10T05:35:23.016Z,11.96
2023-02-10T05:37:51.494Z,12.36
2023-02-10T05:40:24.814Z,12.65
2023-02-10T05:42:51.848Z,12.30
2023-02-10T05:45:19.617Z,12.25
2023-02-10T05:47:47.400Z,12.62
2023-02-10T05:50:14.076Z,12.78
2023-02-10T05:52:41.022Z,13.01
2023-02-10T05:55:07.754Z,12.38
2023-02-10T05:57:34.584Z,12.48
2023-02-10T06:00:01.200Z,13.05
2023-02-10T06:02:28.541Z,12.80
2023-02-10T06:04:55.561Z,13.87
2023-02-10T06:07:23.040Z,13.20
2023-02-10T06:09:49.634Z,13.30
2023-02-10T06:12:16.385Z,12.67
2023-02-10T06:14:43.490Z,13.65
2023-02-10T06:17:14.673Z,13.26
2023-02-10T06:19:42.349Z,13.09
2023-02-10T06:22:09.338Z,13.83
2023-02-10T06:24:38.036Z,14.02
2023-02-10T06:27:07.726Z,14.62
2023-02-10T06:32:40.263Z,15.23
2023-02-10T06:35:07.136Z,16.19
2023-02-10T06:37:34.191Z,15.72
2023-02-10T06:40:01.759Z,15.51
2023-02-10T06:42:29.116Z,15.78
2023-02-10T06:44:56.254Z,15.33
2023-02-10T06:47:25.843Z,17.32
2023-02-10T06:49:57.376Z,20.28
2023-02-10T07:02:00.121Z,20.13
2023-02-10T07:04:27.207Z,20.24
2023-02-10T07:06:54.153Z,20.51
2023-02-10T07:09:21.686Z,21.24
2023-02-10T07:11:52.456Z,20.52
2023-02-10T07:14:23.772Z,20.49
2023-02-10T07:17:17.363Z,19.89
2023-02-10T07:19:45.432Z,19.99
2023-02-10T07:22:14.946Z,19.35
2023-02-10T07:24:42.723Z,18.81
2023-02-10T07:27:10.140Z,16.44
2023-02-10T07:29:40.331Z,17.21
2023-02-10T07:32:07.227Z,16.94
2023-02-10T07:34:34.148Z,15.11
2023-02-10T07:37:01.066Z,15.34
2023-02-10T07:42:22.283Z,18.57
2023-02-10T07:44:51.483Z,17.96
2023-02-10T07:47:25.632Z,18.37
2023-02-10T07:49:52.642Z,19.12
2023-02-10T07:52:19.630Z,18.50
2023-02-10T07:54:48.620Z,18.14
2023-02-10T07:57:16.220Z,18.38
2023-02-10T07:59:44.639Z,19.07
2023-02-10T08:02:11.842Z,18.47
2023-02-10T08:04:41.804Z,19.66
2023-02-10T08:07:08.476Z,18.97
2023-02-10T08:09:36.937Z,19.41
2023-02-10T08:12:06.516Z,19.94
2023-02-10T08:14:37.045Z,18.37
2023-02-10T08:17:11.596Z,17.40
2023-02-10T08:19:39.268Z,19.26
2023-02-10T08:22:11.098Z,18.15
2023-02-10T08:24:38.367Z,18.24
2023-02-10T08:27:08.119Z,17.39
2023-02-10T08:29:41.117Z,16.79
2023-02-10T08:32:12.133Z,17.42
2023-02-10T08:37:34.473Z,18.12
2023-02-10T08:40:01.584Z,18.00
2023-02-10T08:42:32.755Z,18.82
2023-02-10T08:45:03.419Z,19.60
2023-02-10T08:50:22.342Z,20.70
2023-02-10T08:55:30.675Z,22.52
2023-02-10T08:57:59.241Z,22.57
2023-02-10T09:00:29.281Z,23.39
2023-02-10T09:03:00.288Z,23.67
2023-02-10T09:05:27.092Z,23.98
2023-02-10T09:07:57.370Z,23.84
2023-02-10T09:10:25.382Z,23.53
2023-02-10T09:12:56.269Z,23.83
2023-02-10T09:15:25.306Z,23.68
2023-02-10T09:17:53.918Z,23.56
2023-02-10T09:20:21.128Z,22.59
2023-02-10T09:22:48.271Z,22.16
2023-02-10T09:25:16.461Z,23.31
2023-02-10T09:30:54.054Z,26.12
2023-02-10T09:33:20.801Z,28.05
2023-02-10T09:35:49.617Z,27.32
2023-02-10T09:38:17.132Z,27.88
2023-02-10T09:43:35.742Z,28.77
2023-02-10T09:55:11.513Z,26.90
2023-02-10T09:57:42.108Z,27.35
2023-02-10T10:00:08.989Z,26.65
2023-02-10T10:02:36.449Z,26.57
2023-02-10T10:05:04.571Z,25.04
2023-02-10T10:07:31.426Z,26.74
2023-02-10T10:10:03.305Z,26.47
2023-02-10T10:12:32.118Z,26.64
2023-02-10T10:17:53.204Z,31.87
2023-02-10T10:20:33.998Z,28.61
2023-02-10T10:23:01.533Z,26.96
2023-02-10T10:25:29.255Z,25.49
2023-02-10T10:27:56.299Z,24.97
2023-02-10T10:30:23.217Z,25.43
2023-02-10T10:32:50.085Z,25.36
2023-02-10T10:35:17.169Z,26.20
2023-02-10T10:37:44.465Z,27.15
2023-02-10T10:40:11.342Z,26.90
2023-02-10T10:45:18.670Z,27.08
2023-02-10T10:47:45.690Z,28.75
2023-02-10T10:50:17.475Z,27.50
2023-02-10T10:52:45.274Z,29.67
2023-02-10T10:55:12.940Z,30.05
2023-02-10T10:57:39.981Z,29.55
2023-02-10T11:00:07.160Z,30.87
2023-02-10T11:02:34.990Z,29.71
2023-02-10T11:08:21.529Z,31.99
2023-02-10T11:10:51.664Z,32.30
2023-02-10T11:13:21.913Z,32.44
2023-02-10T11:15:49.092Z,32.43
2023-02-10T11:18:21.015Z,32.33
2023-02-10T11:20:48.883Z,33.40
2023-02-10T11:23:16.483Z,36.62
2023-02-10T11:25:49.078Z,34.54
2023-02-10T11:30:57.055Z,25.68
2023-02-10T11:33:24.650Z,33.61
2023-02-10T11:35:51.520Z,32.16
2023-02-10T11:38:18.602Z,32.28
2023-02-10T11:40:46.012Z,33.91
2023-02-10T11:43:12.911Z,29.92
2023-02-10T11:45:40.256Z,29.99
2023-02-10T11:48:07.126Z,30.36
2023-02-10T11:50:35.584Z,29.99
2023-02-10T11:53:03.357Z,32.20
2023-02-10T11:55:32.812Z,30.57
2023-02-10T11:57:59.790Z,29.33
2023-02-10T12:00:27.189Z,29.43
2023-02-10T12:02:56.666Z,33.06
2023-02-10T12:08:26.771Z,33.93
2023-02-10T12:10:53.839Z,34.85
2023-02-10T12:13:22.181Z,32.42
2023-02-10T12:15:49.090Z,32.87
2023-02-10T12:18:15.975Z,32.84
2023-02-10T12:20:44.275Z,32.31
2023-02-10T12:23:11.039Z,32.85
2023-02-10T12:25:37.793Z,32.66
2023-02-10T12:28:07.074Z,31.95
2023-02-10T12:30:34.180Z,31.90
2023-02-10T12:33:01.176Z,30.36
2023-02-10T12:35:27.901Z,30.88
2023-02-10T12:37:58.269Z,31.27
2023-02-10T12:40:50.614Z,32.10
2023-02-10T12:43:18.096Z,32.32
2023-02-10T12:45:44.811Z,32.51
2023-02-10T12:48:11.775Z,32.25
2023-02-10T12:50:43.564Z,31.46
2023-02-10T12:53:11.006Z,32.02
2023-02-10T12:55:37.927Z,33.55
2023-02-10T12:58:04.794Z,33.99
2023-02-10T13:00:32.090Z,30.97
2023-02-10T13:03:00.457Z,33.25
2023-02-10T13:05:32.175Z,34.66
2023-02-10T13:07:58.772Z,35.97
2023-02-10T13:10:25.558Z,33.45
2023-02-10T13:12:56.589Z,35.01
2023-02-10T13:15:25.879Z,34.77
2023-02-10T13:17:52.672Z,36.15
2023-02-10T13:20:21.643Z,36.42
2023-02-10T13:22:49.422Z,35.87
2023-02-10T13:25:16.144Z,32.61
2023-02-10T13:27:43.588Z,31.87
2023-02-10T13:30:10.453Z,30.28
2023-02-10T13:32:37.395Z,30.68
2023-02-10T13:35:08.115Z,29.80
2023-02-10T13:37:35.045Z,31.00
2023-02-10T13:40:02.005Z,32.30
2023-02-10T13:42:38.182Z,30.39
2023-02-10T13:45:11.161Z,29.85
2023-02-10T13:47:44.107Z,30.39
2023-02-10T13:50:12.874Z,29.67
2023-02-10T13:52:42.699Z,30.09
2023-02-10T13:55:12.692Z,29.63
2023-02-10T13:57:39.808Z,30.65
2023-02-10T14:00:06.907Z,31.54
2023-02-10T14:02:35.799Z,30.30
2023-02-10T14:05:02.456Z,31.59
2023-02-10T14:07:29.292Z,31.97
2023-02-10T14:09:56.516Z,30.09
2023-02-10T14:12:23.331Z,29.88
2023-02-10T14:14:50.006Z,28.28
2023-02-10T14:17:18.910Z,30.71
2023-02-10T14:19:45.830Z,31.44
2023-02-10T14:22:12.876Z,28.73
2023-02-10T14:24:50.144Z,30.36
2023-02-10T14:27:17.688Z,29.13
2023-02-10T14:29:45.080Z,28.57
2023-02-10T14:32:12.212Z,27.25
2023-02-10T14:34:39.400Z,28.61
2023-02-10T14:37:07.183Z,29.37
2023-02-10T14:39:34.515Z,28.12
2023-02-10T14:42:02.463Z,29.00
2023-02-10T14:44:31.764Z,28.29
2023-02-10T14:50:08.235Z,27.91
2023-02-10T14:52:39.403Z,28.19
2023-02-10T14:55:06.864Z,29.39
2023-02-10T14:57:33.590Z,28.72
2023-02-10T15:00:00.948Z,29.75
2023-02-10T15:02:30.811Z,29.53
2023-02-10T15:04:58.933Z,30.01
2023-02-10T15:07:26.529Z,30.83
2023-02-10T15:10:04.568Z,31.81
2023-02-10T15:12:36.755Z,30.88
2023-02-10T15:15:06.959Z,30.62
2023-02-10T15:17:33.620Z,30.80
2023-02-10T15:20:00.471Z,31.29
2023-02-10T15:25:15.358Z,33.92
2023-02-10T15:27:41.975Z,33.97
2023-02-10T15:30:08.577Z,34.17
2023-02-10T15:32:35.531Z,32.79
2023-02-10T15:35:05.043Z,32.64
2023-02-10T15:37:49.811Z,30.67
2023-02-10T15:40:16.528Z,31.41
2023-02-10T15:42:43.063Z,31.88
2023-02-10T15:45:09.657Z,32.41
2023-02-10T15:47:38.889Z,32.67
2023-02-10T15:50:05.649Z,33.65
2023-02-10T15:52:33.344Z,33.71
2023-02-10T15:54:59.825Z,34.39
2023-02-10T16:03:58.549Z,34.28
2023-02-10T16:06:26.105Z,33.86
2023-02-10T16:08:52.715Z,33.49
2023-02-10T16:11:21.170Z,34.23
2023-02-10T16:13:48.982Z,34.32
2023-02-10T16:16:16.767Z,34.49
2023-02-10T16:18:44.454Z,32.57
2023-02-10T16:21:11.189Z,32.72
2023-02-10T16:23:37.928Z,32.89
2023-02-10T16:26:05.026Z,32.93
2023-02-10T16:28:31.715Z,33.06
2023-02-10T16:30:58.446Z,33.92
2023-02-10T16:33:25.535Z,33.36
2023-02-10T16:35:52.364Z,32.54
2023-02-10T16:38:18.900Z,32.92
2023-02-10T16:40:45.836Z,34.39
2023-02-10T16:43:12.498Z,33.93
2023-02-10T16:45:39.486Z,34.60
2023-02-10T16:48:06.121Z,34.55
2023-02-10T16:50:33.250Z,34.61
2023-02-10T16:53:00.719Z,34.53
2023-02-10T16:55:27.346Z,34.29
2023-02-10T16:57:56.689Z,34.05
2023-02-10T17:00:23.584Z,31.70
2023-02-10T17:02:50.513Z,32.34
2023-02-10T17:05:17.262Z,30.31
2023-02-10T17:07:45.214Z,31.16
2023-02-10T17:10:11.885Z,32.00
2023-02-10T17:12:43.391Z,33.81
2023-02-10T17:15:10.074Z,35.19
2023-02-10T17:17:36.847Z,35.78
2023-02-10T17:20:04.857Z,34.85
2023-02-10T17:22:31.817Z,34.55
2023-02-10T17:25:02.358Z,34.95
2023-02-10T17:27:29.721Z,35.94
2023-02-10T17:30:14.984Z,36.14
2023-02-10T17:42:42.664Z,38.38
2023-02-10T17:45:09.577Z,38.05
2023-02-10T17:47:37.135Z,39.44
2023-02-10T17:50:06.060Z,39.66
2023-02-10T17:52:35.300Z,38.02
2023-02-10T17:55:15.728Z,40.26
2023-02-10T17:57:49.846Z,39.26
2023-02-10T18:00:16.967Z,38.87
2023-02-10T18:02:51.482Z,38.15
2023-02-10T18:05:18.479Z,35.87
2023-02-10T18:07:48.696Z,33.88
2023-02-10T18:10:19.520Z,34.37
2023-02-10T18:47:07.750Z,31.41
2023-02-10T18:49:39.373Z,31.14
2023-02-10T18:52:06.962Z,31.54
2023-02-10T19:00:22.637Z,31.40
2023-02-10T19:02:49.726Z,34.03
2023-02-10T19:27:52.017Z,32.48
2023-02-10T19:30:30.156Z,32.27
2023-02-10T19:32:57.561Z,32.29
2023-02-10T19:35:25.887Z,33.33
2023-02-10T19:37:53.002Z,31.36
2023-02-10T19:40:19.938Z,31.25
2023-02-10T19:42:49.150Z,32.35
2023-02-10T19:45:16.284Z,33.26
2023-02-10T19:47:52.209Z,31.79
2023-02-10T19:50:23.889Z,34.69
2023-02-10T19:52:51.087Z,33.71
2023-02-10T19:55:18.178Z,35.36
2023-02-10T19:57:46.825Z,34.53
2023-02-10T20:00:15.516Z,33.56
2023-02-10T20:02:42.253Z,34.09
2023-02-10T20:05:11.814Z,33.45
2023-02-10T20:07:39.248Z,32.45
2023-02-10T20:13:10.672Z,33.06
2023-02-10T20:18:52.617Z,31.39
2023-02-10T20:21:19.384Z,32.38
2023-02-10T20:23:45.852Z,32.38
2023-02-10T20:26:12.294Z,32.28
2023-02-10T20:28:41.480Z,32.21
2023-02-10T20:31:07.941Z,32.63
2023-02-10T20:40:04.646Z,33.46
2023-02-10T20:42:40.663Z,32.15
2023-02-10T20:45:07.520Z,33.05
2023-02-10T20:47:34.112Z,32.62
2023-02-10T20:50:00.883Z,32.56
2023-02-10T20:52:28.247Z,32.76
2023-02-10T20:54:57.193Z,33.23
2023-02-10T20:57:25.065Z,32.45
2023-02-10T20:59:52.021Z,33.75
2023-02-10T21:02:21.416Z,34.70
2023-02-10T21:04:58.533Z,33.95
2023-02-10T21:16:47.748Z,34.80
2023-02-10T21:28:49.489Z,33.76
2023-02-10T22:25:18.680Z,33.94
2023-02-10T22:27:51.470Z,33.81
2023-02-10T22:30:19.987Z,35.92
2023-02-10T22:48:29.371Z,36.39
2023-02-10T22:56:52.197Z,36.32
2023-02-10T23:02:37.040Z,33.17
2023-02-10T23:29:41.041Z,37.97
